Time;durP1;ratioP1;P1;durP2;ratioP2;P2;SDS_P1;SDS_P2;PMS_P1;PMS_P2;Temp;Humidity;BMP_temperature;BMP_pressure;BME280_temperature;BME280_humidity;BME280_pressure;Samples;Min_cycle;Max_cycle;Signal;HPM_P1;HPM_P2
2023/04/24 00:00:46;;;;;;;11.77;8.88;;;10.50;99.90;;;;;;5020340;28;20112;-89
2023/04/24 00:03:30;;;;;;;;;;;;;;;;;;;;;
2023/04/24 00:06:16;;;;;;;10.40;8.85;;;10.60;99.90;;;;;;5022426;28;20041;-88
2023/04/24 00:08:50;;;;;;;12.02;9.77;;;10.50;99.90;;;;;;5020163;28;20056;-89
2023/04/24 00:11:16;;;;;;;11.00;9.65;;;10.50;99.90;;;;;;5004543;28;20026;-88
2023/04/24 00:13:47;;;;;;;10.82;8.90;;;10.50;99.90;;;;;;5019758;28;20018;-88
2023/04/24 00:16:32;;;;;;;;;;;10.50;99.90;;;;;;5004758;28;20029;-87
2023/04/24 00:19:05;;;;;;;6.93;4.40;;;10.50;99.90;;;;;;5019936;28;19908;-89
2023/04/24 00:21:34;;;;;;;5.88;3.70;;;10.40;99.90;;;;;;5020073;28;20028;-88
2023/04/24 00:24:15;;;;;;;;;;;;;;;;;;;;;
2023/04/24 00:26:43;;;;;;;6.25;4.38;;;10.50;99.90;;;;;;5022801;28;20108;-90
2023/04/24 00:29:18;;;;;;;7.55;5.30;;;10.50;99.90;;;;;;5006369;28;20457;-88
2023/04/24 00:31:49;;;;;;;6.43;5.15;;;10.50;99.90;;;;;;5019429;28;20018;-88
2023/04/24 00:34:15;;;;;;;6.90;5.32;;;10.50;99.90;;;;;;5019653;28;20224;-89
2023/04/24 00:36:44;;;;;;;7.35;5.30;;;10.40;99.90;;;;;;5027484;28;20037;-89
2023/04/24 00:39:15;;;;;;;4.38;3.50;;;10.40;99.90;;;;;;5029115;28;20025;-88
2023/04/24 00:41:45;;;;;;;4.88;3.42;;;10.40;99.90;;;;;;4989511;28;20049;-89
2023/04/24 00:44:16;;;;;;;5.20;3.08;;;10.50;99.90;;;;;;5019695;28;20025;-88
2023/04/24 00:46:45;;;;;;;3.83;2.80;;;10.50;99.90;;;;;;5019850;28;20021;-88
2023/04/24 00:49:16;;;;;;;4.50;3.00;;;10.50;99.90;;;;;;5019954;28;20017;-89
2023/04/24 00:51:51;;;;;;;5.63;3.40;;;10.50;99.90;;;;;;5003698;28;20036;-89
2023/04/24 00:54:19;;;;;;;6.30;4.40;;;10.50;99.90;;;;;;5018724;28;20021;-89
2023/04/24 00:57:03;;;;;;;9.65;6.78;;;10.50;99.90;;;;;;5018799;28;20045;-88
2023/04/24 00:59:29;;;;;;;8.52;6.85;;;10.50;99.90;;;;;;5019308;28;20021;-88
2023/04/24 01:02:03;;;;;;;12.95;10.18;;;10.50;99.90;;;;;;5019053;28;20029;-88
2023/04/24 01:04:39;;;;;;;14.13;11.48;;;10.40;99.90;;;;;;5002554;28;20460;-90
2023/04/24 01:07:11;;;;;;;18.83;13.55;;;10.40;99.90;;;;;;5019196;28;20354;-88
2023/04/24 01:09:48;;;;;;;19.38;15.55;;;10.40;99.90;;;;;;5019030;28;20025;-91
2023/04/24 01:12:15;;;;;;;26.05;17.40;;;10.50;99.90;;;;;;5018364;28;20037;-88
2023/04/24 01:14:56;;;;;;;26.58;18.70;;;10.40;99.90;;;;;;5018425;28;20025;-88
2023/04/24 01:17:39;;;;;;;24.10;17.58;;;10.40;99.90;;;;;;5019443;28;20470;-89
2023/04/24 01:20:10;;;;;;;25.20;18.98;;;10.40;99.90;;;;;;5004247;28;20041;-88
2023/04/24 01:22:41;;;;;;;25.83;18.42;;;10.40;99.90;;;;;;5018811;28;20069;-89
2023/04/24 01:25:30;;;;;;;30.10;20.95;;;10.40;99.90;;;;;;5036025;28;20458;-89
2023/04/24 01:28:03;;;;;;;27.40;19.33;;;10.50;99.90;;;;;;5018820;28;20531;-89
2023/04/24 01:30:51;;;;;;;27.45;18.88;;;10.40;99.90;;;;;;5036365;28;20044;-89
2023/04/24 01:33:27;;;;;;;25.52;18.63;;;10.40;99.90;;;;;;5018618;28;20480;-89
2023/04/24 01:35:58;;;;;;;23.30;18.25;;;10.50;99.90;;;;;;5003325;28;20433;-90
2023/04/24 01:38:35;;;;;;;22.58;16.50;;;10.50;99.90;;;;;;5018941;28;20033;-89
2023/04/24 01:41:07;;;;;;;21.58;16.20;;;10.50;99.90;;;;;;5023636;28;20545;-91
2023/04/24 01:43:52;;;;;;;20.30;15.15;;;10.50;99.90;;;;;;5003131;28;20030;-89
2023/04/24 01:46:30;;;;;;;19.80;15.82;;;10.50;99.90;;;;;;5018969;28;20082;-90
2023/04/24 01:49:06;;;;;;;21.80;15.80;;;10.50;99.90;;;;;;5018473;28;20029;-90
2023/04/24 01:51:49;;;;;;;;;;;;;;;;;;;;;
2023/04/24 01:54:30;;;;;;;;;;;;;;;;;;;;;
2023/04/24 01:57:10;;;;;;;20.67;17.00;;;10.50;99.90;;;;;;5024443;28;20128;-89
2023/04/24 01:59:48;;;;;;;19.75;15.65;;;10.50;99.90;;;;;;5004270;28;20500;-89
2023/04/24 02:02:24;;;;;;;22.33;16.55;;;10.50;99.90;;;;;;5002527;28;20543;-90
2023/04/24 02:05:11;;;;;;;22.77;17.83;;;10.40;99.90;;;;;;5018683;28;20029;-90
2023/04/24 02:07:45;;;;;;;22.50;17.40;;;10.40;99.90;;;;;;5004458;28;20017;-89
2023/04/24 02:10:16;;;;;;;21.85;17.42;;;10.40;99.90;;;;;;5018159;28;20017;-89
2023/04/24 02:12:49;;;;;;;25.38;18.45;;;10.40;99.90;;;;;;5002354;28;20033;-89
2023/04/24 02:15:28;;;;;;;;;;;;;;;;;;;;;
2023/04/24 02:18:02;;;;;;;23.15;18.80;;;10.40;99.90;;;;;;5035974;28;20097;-89
2023/04/24 02:20:39;;;;;;;23.48;19.00;;;10.40;99.90;;;;;;5045261;28;20050;-90
2023/04/24 02:23:14;;;;;;;26.80;19.45;;;10.40;99.90;;;;;;5009991;28;20469;-90
2023/04/24 02:25:53;;;;;;;28.67;20.35;;;10.40;99.90;;;;;;5002012;28;20469;-88
2023/04/24 02:28:32;;;;;;;26.92;20.40;;;10.40;99.90;;;;;;5017730;28;20474;-89
2023/04/24 02:31:08;;;;;;;27.35;20.45;;;10.40;99.90;;;;;;5001809;28;20175;-91
2023/04/24 02:33:41;;;;;;;24.83;19.35;;;10.40;99.90;;;;;;5004214;28;20030;-90
2023/04/24 02:36:09;;;;;;;24.55;19.45;;;10.40;99.90;;;;;;5024774;28;20034;-89
2023/04/24 02:38:55;;;;;;;24.73;19.33;;;10.40;99.90;;;;;;5001558;28;20112;-90
2023/04/24 02:41:33;;;;;;;;;;;;;;;;;;;;;
2023/04/24 02:44:08;;;;;;;24.35;19.17;;;10.40;99.90;;;;;;5034984;28;20037;-89
2023/04/24 02:46:46;;;;;;;;;;;;;;;;;;;;;
2023/04/24 02:49:23;;;;;;;27.33;19.02;;;10.50;99.90;;;;;;5019527;28;20034;-90
2023/04/24 02:52:36;;;;;;;24.85;18.02;;;10.40;99.90;;;;;;5017433;28;20087;-89
2023/04/24 03:01:37;;;;;;;23.15;17.80;;;10.40;99.90;;;;;;5035512;28;20088;-90
2023/04/24 03:04:05;;;;;;;23.33;16.98;;;10.40;99.90;;;;;;5018066;28;20061;-89
2023/04/24 03:10:02;;;;;;;24.98;18.45;;;10.40;99.90;;;;;;5004507;28;20134;-89
2023/04/24 03:12:58;;;;;;;;;;;;;;;;;;;;;
2023/04/24 03:15:31;;;;;;;23.77;18.70;;;10.30;99.90;;;;;;5018633;28;20039;-89
2023/04/24 03:18:03;;;;;;;22.55;16.77;;;10.30;99.90;;;;;;5017596;28;20076;-89
2023/04/24 03:21:06;;;;;;;23.23;16.88;;;10.40;99.90;;;;;;5001914;28;20052;-89
2023/04/24 03:23:42;;;;;;;22.15;17.52;;;10.30;99.90;;;;;;5005534;28;20034;-89
2023/04/24 03:26:20;;;;;;;24.45;18.23;;;10.30;99.90;;;;;;5017489;28;20484;-89
2023/04/24 03:29:18;;;;;;;28.17;19.65;;;10.40;99.90;;;;;;5003913;28;20112;-91
2023/04/24 03:31:51;;;;;;;28.40;21.75;;;10.40;99.90;;;;;;5002364;28;20385;-89
2023/04/24 03:37:46;;;;;;;36.60;26.70;;;10.30;99.90;;;;;;5002064;28;20049;-89
2023/04/24 03:44:01;;;;;;;38.35;28.23;;;10.20;99.90;;;;;;5027593;28;20029;-89
2023/04/24 03:46:45;;;;;;;;;;;;;;;;;;;;;
2023/04/24 03:52:58;;;;;;;;;;;;;;;;;;;;;
2023/04/24 03:56:04;;;;;;;40.33;28.13;;;10.10;99.90;;;;;;5022477;28;20054;-89
2023/04/24 03:58:38;;;;;;;40.20;29.90;;;10.00;99.90;;;;;;5019928;28;20060;-89
2023/04/24 04:01:21;;;;;;;;;;;;;;;;;;;;;
2023/04/24 04:03:58;;;;;;;43.85;30.20;;;10.00;99.90;;;;;;5022455;28;20024;-89
2023/04/24 04:06:40;;;;;;;;;;;;;;;;;;;;;
2023/04/24 04:09:29;;;;;;;43.95;30.60;;;10.00;99.90;;;;;;5027102;28;20089;-89
2023/04/24 04:12:38;;;;;;;38.67;29.20;;;10.00;99.90;;;;;;5020176;28;20029;-89
2023/04/24 04:15:41;;;;;;;;;;;;;;;;;;;;;
2023/04/24 04:18:40;;;;;;;;;;;;;;;;;;;;;
2023/04/24 04:21:13;;;;;;;38.15;26.55;;;9.90;99.90;;;;;;5037570;28;20024;-90
2023/04/24 04:24:25;;;;;;;;;;;;;;;;;;;;;
2023/04/24 04:30:28;;;;;;;;;;;;;;;;;;;;;
2023/04/24 04:36:42;;;;;;;34.28;23.88;;;9.80;99.90;;;;;;5020282;28;20074;-88
2023/04/24 04:42:47;;;;;;;31.98;24.38;;;9.70;99.90;;;;;;5024353;28;20034;-88
2023/04/24 04:49:10;;;;;;;31.27;23.90;;;9.60;99.90;;;;;;5009046;28;20025;-88
2023/04/24 04:52:19;;;;;;;;;;;;;;;;;;;;;
2023/04/24 04:55:23;;;;;;;;;;;;;;;;;;;;;
2023/04/24 04:58:25;;;;;;;36.10;22.85;;;9.60;99.90;;;;;;5037814;28;20036;-89
2023/04/24 05:01:16;;;;;;;31.63;22.77;;;9.50;99.90;;;;;;4980126;28;20112;-88
2023/04/24 05:04:01;;;;;;;31.38;23.55;;;9.60;99.90;;;;;;5012178;28;20142;-88
2023/04/24 05:06:52;;;;;;;;;;;;;;;;;;;;;
2023/04/24 05:10:15;;;;;;;;;;;;;;;;;;;;;
2023/04/24 05:13:20;;;;;;;;;;;;;;;;;;;;;
2023/04/24 05:16:02;;;;;;;;;;;;;;;;;;;;;
2023/04/24 05:19:10;;;;;;;;;;;;;;;;;;;;;
2023/04/24 05:22:09;;;;;;;;;;;;;;;;;;;;;
2023/04/24 05:25:03;;;;;;;31.50;20.83;;;9.60;99.90;;;;;;5020469;28;20040;-89
2023/04/24 05:28:09;;;;;;;;;;;;;;;;;;;;;
2023/04/24 05:31:06;;;;;;;;;;;;;;;;;;;;;
2023/04/24 05:34:17;;;;;;;27.17;18.52;;;9.70;99.90;;;;;;5035361;28;20443;-89
2023/04/24 05:37:08;;;;;;;;;;;;;;;;;;;;;
2023/04/24 05:39:35;;;;;;;23.58;17.95;;;9.70;99.90;;;;;;5012865;28;20470;-89
2023/04/24 05:42:04;;;;;;;29.00;19.10;;;9.70;99.90;;;;;;4996510;28;20040;-89
2023/04/24 05:44:43;;;;;;;26.42;18.92;;;9.70;99.90;;;;;;5039469;28;20037;-90
2023/04/24 05:47:21;;;;;;;27.08;18.40;;;9.70;99.90;;;;;;4983191;28;20062;-91
2023/04/24 05:50:16;;;;;;;;;;;;;;;;;;;;;
2023/04/24 05:53:02;;;;;;;30.42;19.88;;;9.80;99.90;;;;;;5001572;28;20057;-90
2023/04/24 05:55:36;;;;;;;29.55;19.70;;;9.80;99.90;;;;;;4968596;28;20064;-90
2023/04/24 05:58:12;;;;;;;;;;;;;;;;;;;;;
2023/04/24 06:01:29;;;;;;;29.98;18.95;;;9.90;99.90;;;;;;5015673;28;20466;-90
2023/04/24 06:07:24;;;;;;;30.40;19.65;;;9.90;99.90;;;;;;4984338;28;20385;-90
2023/04/24 06:10:22;;;;;;;27.83;18.30;;;10.00;99.90;;;;;;4989194;28;20042;-89
2023/04/24 06:13:29;;;;;;;;;;;;;;;;;;;;;
2023/04/24 06:16:22;;;;;;;30.98;18.33;;;10.00;99.90;;;;;;5015150;28;20033;-89
2023/04/24 06:19:11;;;;;;;27.33;18.10;;;10.00;99.90;;;;;;4998227;28;20026;-89
2023/04/24 06:21:54;;;;;;;;;;;;;;;;;;;;;
2023/04/24 06:24:32;;;;;;;29.20;18.25;;;10.10;99.90;;;;;;5015093;28;20036;-89
2023/04/24 06:27:49;;;;;;;31.02;18.23;;;10.10;99.90;;;;;;4982083;28;20094;-90
2023/04/24 06:33:10;;;;;;;;;;;;;;;;;;;;;
2023/04/24 06:38:50;;;;;;;22.33;13.45;;;10.20;99.90;;;;;;4990539;28;20045;-89
2023/04/24 06:42:10;;;;;;;;;;;;;;;;;;;;;
2023/04/24 06:48:37;;;;;;;17.27;10.93;;;10.20;99.90;;;;;;4959287;28;20081;-90
2023/04/24 06:51:23;;;;;;;16.50;10.00;;;10.30;99.90;;;;;;4985411;28;20029;-88
2023/04/24 06:54:02;;;;;;;16.13;10.43;;;10.30;99.90;;;;;;5014155;28;20026;-89
2023/04/24 06:56:31;;;;;;;16.77;11.00;;;10.30;99.90;;;;;;5000675;28;20081;-88
2023/04/24 07:02:38;;;;;;;18.98;10.73;;;10.30;99.90;;;;;;5019896;28;20083;-89
2023/04/24 07:05:43;;;;;;;;;;;;;;;;;;;;;
2023/04/24 07:08:26;;;;;;;;;;;;;;;;;;;;;
2023/04/24 07:11:15;;;;;;;9.35;6.38;;;10.30;99.90;;;;;;5003635;28;20033;-89
2023/04/24 07:14:15;;;;;;;11.32;6.80;;;10.30;99.90;;;;;;5018076;28;20116;-89
2023/04/24 07:17:05;;;;;;;8.68;5.30;;;10.30;99.90;;;;;;5019861;28;20073;-89
2023/04/24 07:20:09;;;;;;;8.75;5.22;;;10.30;99.90;;;;;;5019865;28;20038;-89
2023/04/24 07:23:16;;;;;;;8.15;5.28;;;10.30;99.90;;;;;;5003659;28;20034;-88
2023/04/24 07:25:46;;;;;;;8.02;4.82;;;10.20;99.90;;;;;;5032780;28;20044;-89
2023/04/24 07:32:01;;;;;;;4.72;2.80;;;10.20;99.90;;;;;;5014493;28;20029;-89
2023/04/24 07:35:03;;;;;;;;;;;;;;;;;;;;;
2023/04/24 07:40:58;;;;;;;;;;;;;;;;;;;;;
2023/04/24 07:44:10;;;;;;;3.72;2.10;;;10.20;99.90;;;;;;5021054;28;20032;-89
2023/04/24 07:46:41;;;;;;;;;;;10.20;99.90;;;;;;5019585;28;20029;-88
2023/04/24 07:49:35;;;;;;;;;;;;;;;;;;;;;
2023/04/24 07:52:09;;;;;;;12.05;5.57;;;10.10;99.90;;;;;;5037235;28;19912;-89
2023/04/24 07:55:08;;;;;;;;;;;;;;;;;;;;;
2023/04/24 07:58:09;;;;;;;17.80;8.23;;;10.10;99.90;;;;;;5036991;28;20037;-89
2023/04/24 08:01:11;;;;;;;;;;;;;;;;;;;;;
2023/04/24 08:04:00;;;;;;;16.20;9.50;;;10.10;99.90;;;;;;5037216;28;20036;-88
2023/04/24 08:06:49;;;;;;;17.65;9.82;;;10.10;99.90;;;;;;5019377;28;20033;-89
2023/04/24 08:09:38;;;;;;;18.38;10.30;;;10.10;99.90;;;;;;5019618;28;20048;-88
2023/04/24 08:12:24;;;;;;;20.33;11.30;;;10.00;99.90;;;;;;5018782;28;20060;-89
2023/04/24 08:15:31;;;;;;;;;;;;;;;;;;;;;
2023/04/24 08:18:12;;;;;;;18.75;11.00;;;10.00;99.90;;;;;;5036959;28;20381;-88
2023/04/24 08:21:02;;;;;;;;;;;;;;;;;;;;;
2023/04/24 08:24:06;;;;;;;;;;;;;;;;;;;;;
2023/04/24 08:26:29;;;;;;;21.90;11.77;;;9.90;99.90;;;;;;5017634;28;20140;-88
2023/04/24 08:29:21;;;;;;;19.02;10.60;;;9.80;99.90;;;;;;5019734;28;20036;-88
2023/04/24 08:32:20;;;;;;;;;;;;;;;;;;;;;
2023/04/24 08:35:10;;;;;;;;;;;;;;;;;;;;;
2023/04/24 08:38:06;;;;;;;24.05;11.80;;;9.80;99.90;;;;;;5021500;28;20473;-88
2023/04/24 08:41:12;;;;;;;;;;;;;;;;;;;;;
2023/04/24 08:43:54;;;;;;;21.83;12.88;;;9.80;99.90;;;;;;5031724;28;20038;-88
2023/04/24 08:47:06;;;;;;;20.20;13.52;;;9.70;99.90;;;;;;4999911;28;20038;-89
2023/04/24 08:50:23;;;;;;;;;;;;;;;;;;;;;
2023/04/24 08:52:41;;;;;;;23.83;12.98;;;9.70;99.90;;;;;;5007741;28;20401;-88
2023/04/24 08:55:25;;;;;;;30.90;14.55;;;9.70;99.90;;;;;;5000458;28;20064;-88
2023/04/24 08:58:07;;;;;;;;;;;;;;;;;;;;;
2023/04/24 09:00:47;;;;;;;;;;;;;;;;;;;;;
2023/04/24 09:03:17;;;;;;;28.50;13.63;;;9.70;99.90;;;;;;5016248;28;20137;-89
2023/04/24 09:05:57;;;;;;;17.83;10.13;;;9.70;99.90;;;;;;5005285;28;20035;-88
2023/04/24 09:08:51;;;;;;;18.48;9.35;;;9.70;99.90;;;;;;5003515;28;20033;-89
2023/04/24 09:11:41;;;;;;;22.48;8.20;;;9.70;99.90;;;;;;5011946;28;20045;-89
2023/04/24 09:14:19;;;;;;;19.27;7.07;;;9.70;99.90;;;;;;5017538;28;20025;-89
2023/04/24 09:17:05;;;;;;;17.33;7.28;;;9.70;99.90;;;;;;5017421;28;20029;-89
2023/04/24 09:19:33;;;;;;;20.90;7.03;;;9.60;99.90;;;;;;4990401;28;20026;-90
2023/04/24 09:22:08;;;;;;;23.98;7.72;;;9.70;99.90;;;;;;5019020;28;20022;-89
2023/04/24 09:24:41;;;;;;;25.15;6.95;;;9.60;99.90;;;;;;5016092;28;20022;-89
2023/04/24 09:27:18;;;;;;;21.67;7.78;;;9.70;99.90;;;;;;5019648;28;20025;-89
2023/04/24 09:29:57;;;;;;;27.50;7.70;;;9.60;99.90;;;;;;5018647;28;20021;-89
2023/04/24 09:32:36;;;;;;;;;;;;;;;;;;;;;
2023/04/24 09:35:16;;;;;;;23.42;7.10;;;9.70;99.90;;;;;;5018837;28;20025;-90
2023/04/24 09:37:59;;;;;;;28.27;6.95;;;9.70;99.90;;;;;;5017641;28;20551;-88
2023/04/24 09:40:32;;;;;;;20.80;5.93;;;9.70;99.90;;;;;;5017678;28;20022;-88
2023/04/24 09:43:32;;;;;;;;;;;;;;;;;;;;;
2023/04/24 09:46:13;;;;;;;19.15;6.40;;;9.70;99.90;;;;;;5035104;28;20040;-89
2023/04/24 09:49:02;;;;;;;24.17;5.25;;;9.70;99.90;;;;;;5017989;28;20018;-89
2023/04/24 09:52:33;;;;;;;21.70;5.30;;;9.70;99.90;;;;;;5001993;28;20032;-89
2023/04/24 09:55:04;;;;;;;;;;;9.70;99.90;;;;;;5008415;28;20071;-89
2023/04/24 09:57:40;;;;;;;14.95;4.47;;;9.70;99.90;;;;;;5017152;28;20007;-90
2023/04/24 10:00:16;;;;;;;16.90;4.13;;;9.70;99.90;;;;;;5017166;28;20037;-89
2023/04/24 10:03:15;;;;;;;;;;;;;;;;;;;;;
2023/04/24 10:05:51;;;;;;;17.77;4.63;;;9.60;99.90;;;;;;5022929;28;20029;-89
2023/04/24 10:14:57;;;;;;;20.83;4.40;;;9.60;99.90;;;;;;5026638;28;20032;-91
2023/04/24 10:17:44;;;;;;;15.63;4.13;;;9.50;99.90;;;;;;5019056;28;20038;-90
2023/04/24 10:20:19;;;;;;;15.00;4.10;;;9.50;99.90;;;;;;5019312;28;20125;-90
2023/04/24 10:23:24;;;;;;;;;;;;;;;;;;;;;
2023/04/24 10:26:36;;;;;;;13.30;4.45;;;9.60;99.90;;;;;;5035509;28;20103;-92
2023/04/24 10:29:09;;;;;;;13.52;4.15;;;9.60;99.90;;;;;;5015446;28;20489;-88
2023/04/24 10:31:48;;;;;;;19.95;4.97;;;9.70;99.90;;;;;;5008679;28;20036;-89
2023/04/24 10:38:11;;;;;;;;;;;;;;;;;;;;;
2023/04/24 10:40:46;;;;;;;19.13;5.93;;;9.80;99.90;;;;;;5026529;28;20470;-89
2023/04/24 10:43:51;;;;;;;;;;;;;;;;;;;;;
2023/04/24 10:46:53;;;;;;;15.98;4.03;;;9.90;99.90;;;;;;5034754;28;20501;-90
2023/04/24 10:52:50;;;;;;;9.43;2.90;;;9.90;99.90;;;;;;5023324;28;20108;-90
2023/04/24 10:56:09;;;;;;;;;;;;;;;;;;;;;
2023/04/24 10:59:43;;;;;;;;;;;;;;;;;;;;;
2023/04/24 11:02:39;;;;;;;11.07;2.38;;;9.80;99.90;;;;;;4922234;28;20169;-90
2023/04/24 11:05:34;;;;;;;;;;;;;;;;;;;;;
2023/04/24 11:15:07;;;;;;;;;;;;;;;;;;;;;
2023/04/24 11:18:05;;;;;;;8.15;2.45;;;9.70;99.90;;;;;;5014953;28;20030;-90
2023/04/24 11:21:05;;;;;;;8.25;2.30;;;9.60;99.90;;;;;;4991899;28;20108;-90
2023/04/24 11:24:09;;;;;;;;;;;;;;;;;;;;;
2023/04/24 11:44:43;;;;;;;;;;;;;;;;;;;;;
2023/04/24 11:54:35;;;;;;;;;;;;;;;;;;;;;
2023/04/24 12:01:08;;;;;;;;;;;;;;;;;;;;;
2023/04/24 12:03:50;;;;;;;6.85;1.70;;;10.30;99.90;;;;;;4743817;30;20036;-89
2023/04/24 12:06:42;;;;;;;;;;;;;;;;;;;;;
2023/04/24 12:09:56;;;;;;;;;;;;;;;;;;;;;
2023/04/24 12:12:51;;;;;;;;;;;;;;;;;;;;;
2023/04/24 12:15:45;;;;;;;7.85;1.95;;;10.20;99.90;;;;;;5003690;28;20492;-90
2023/04/24 12:18:55;;;;;;;8.27;2.05;;;10.20;99.90;;;;;;5017193;28;20431;-91
2023/04/24 12:21:58;;;;;;;10.55;1.75;;;10.10;99.90;;;;;;4988508;28;20033;-92
2023/04/24 12:25:01;;;;;;;10.27;2.22;;;10.10;99.90;;;;;;4996026;28;20120;-90
2023/04/24 12:28:15;;;;;;;10.35;1.58;;;10.10;99.90;;;;;;4987843;28;20030;-90
2023/04/24 12:31:26;;;;;;;9.80;2.33;;;10.10;99.90;;;;;;5017331;28;20113;-91
2023/04/24 12:34:43;;;;;;;6.40;1.98;;;10.10;99.90;;;;;;5001185;28;20041;-90
2023/04/24 12:41:05;;;;;;;;;;;;;;;;;;;;;
2023/04/24 12:44:13;;;;;;;7.15;2.00;;;10.10;99.90;;;;;;5019157;28;20085;-90
2023/04/24 12:47:09;;;;;;;;;;;;;;;;;;;;;
2023/04/24 12:49:55;;;;;;;8.18;2.60;;;10.10;99.90;;;;;;4983165;28;20462;-91
2023/04/24 13:02:39;;;;;;;;;;;;;;;;;;;;;
2023/04/24 13:14:52;;;;;;;5.38;1.40;;;10.10;99.90;;;;;;4999415;28;20397;-90
2023/04/24 13:18:20;;;;;;;;;;;;;;;;;;;;;
2023/04/24 13:21:44;;;;;;;;;;;;;;;;;;;;;
2023/04/24 13:28:33;;;;;;;;;;;;;;;;;;;;;
2023/04/24 13:31:55;;;;;;;;;;;;;;;;;;;;;
2023/04/24 13:35:14;;;;;;;7.90;1.90;;;10.20;99.90;;;;;;5011297;28;20042;-90
2023/04/24 13:52:14;;;;;;;;;;;;;;;;;;;;;
2023/04/24 13:55:20;;;;;;;;;;;;;;;;;;;;;
2023/04/24 13:58:17;;;;;;;10.95;2.13;;;10.50;99.90;;;;;;5009264;28;20053;-90
2023/04/24 14:00:51;;;;;;;10.77;2.65;;;10.60;99.90;;;;;;4995612;28;20050;-89
2023/04/24 14:03:27;;;;;;;7.60;2.45;;;10.60;99.90;;;;;;5001279;28;20026;-89
2023/04/24 14:09:22;;;;;;;;;;;;;;;;;;;;;
2023/04/24 14:12:09;;;;;;;5.65;1.70;;;10.80;99.90;;;;;;5035211;28;20035;-89
2023/04/24 14:14:57;;;;;;;8.55;1.70;;;10.90;99.90;;;;;;5016444;28;20013;-90
2023/04/24 14:17:33;;;;;;;10.63;2.72;;;10.90;99.90;;;;;;5016602;28;20559;-88
2023/04/24 14:20:22;;;;;;;8.90;2.30;;;10.90;99.90;;;;;;5001022;28;20038;-88
2023/04/24 14:22:51;;;;;;;8.20;2.40;;;10.90;99.90;;;;;;5016703;28;20024;-88
2023/04/24 14:25:53;;;;;;;11.23;2.45;;;10.90;99.90;;;;;;5017150;28;20099;-90
2023/04/24 14:28:41;;;;;;;;;;;;;;;;;;;;;
2023/04/24 14:31:20;;;;;;;;;;;;;;;;;;;;;
2023/04/24 14:41:19;;;;;;;;;;;;;;;;;;;;;
2023/04/24 14:47:21;;;;;;;8.20;1.80;;;11.50;99.90;;;;;;5024159;28;20048;-90
2023/04/24 14:53:22;;;;;;;;;;;11.70;99.90;;;;;;4999811;28;20120;-92
2023/04/24 14:56:42;;;;;;;;;;;;;;;;;;;;;
2023/04/24 15:03:13;;;;;;;9.68;2.60;;;11.80;99.90;;;;;;5035663;28;20128;-93
2023/04/24 15:27:13;;;;;;;;;;;;;;;;;;;;;
2023/04/24 15:30:26;;;;;;;14.40;3.33;;;11.40;99.90;;;;;;4629754;30;20106;-90
2023/04/24 15:33:31;;;;;;;18.88;3.33;;;11.40;99.90;;;;;;4734016;30;20035;-89
2023/04/24 15:36:15;;;;;;;13.80;3.22;;;11.40;99.90;;;;;;4790963;30;20617;-92
2023/04/24 15:38:54;;;;;;;11.98;2.83;;;11.40;99.90;;;;;;4779737;29;20138;-90
2023/04/24 15:44:30;;;;;;;10.32;3.17;;;11.40;99.90;;;;;;4938868;29;20078;-93
2023/04/24 15:47:16;;;;;;;;;;;;;;;;;;;;;
2023/04/24 15:50:23;;;;;;;;;;;;;;;;;;;;;
2023/04/24 15:56:19;;;;;;;;;;;;;;;;;;;;;
2023/04/24 15:59:17;;;;;;;;;;;;;;;;;;;;;
2023/04/24 16:05:23;;;;;;;;;;;;;;;;;;;;;
2023/04/24 16:07:56;;;;;;;9.32;2.47;;;11.40;99.90;;;;;;5017378;28;20361;-87
2023/04/24 16:10:51;;;;;;;;;;;;;;;;;;;;;
2023/04/24 16:13:33;;;;;;;9.25;2.72;;;11.60;99.90;;;;;;5009163;28;20481;-90
2023/04/24 16:19:12;;;;;;;;;;;;;;;;;;;;;
2023/04/24 16:21:54;;;;;;;;;;;;;;;;;;;;;
2023/04/24 16:24:47;;;;;;;13.18;3.15;;;12.00;99.90;;;;;;4989371;28;20036;-90
2023/04/24 16:28:08;;;;;;;16.40;3.45;;;12.00;99.90;;;;;;4973341;28;20042;-89
2023/04/24 16:31:04;;;;;;;13.68;3.60;;;11.90;99.90;;;;;;4996926;28;20037;-88
2023/04/24 16:34:08;;;;;;;10.50;3.55;;;11.90;99.90;;;;;;4999826;28;20029;-89
2023/04/24 16:36:55;;;;;;;11.98;3.30;;;11.70;99.90;;;;;;4980679;28;20038;-89
2023/04/24 16:39:43;;;;;;;18.25;4.45;;;11.60;99.90;;;;;;4921290;29;20051;-89
2023/04/24 16:42:16;;;;;;;37.90;4.47;;;11.60;99.90;;;;;;4922414;29;20031;-89
2023/04/24 16:45:13;;;;;;;;;;;;;;;;;;;;;
2023/04/24 16:51:23;;;;;;;14.65;3.42;;;11.70;99.90;;;;;;5006654;28;20030;-89
2023/04/24 16:54:09;;;;;;;13.32;3.70;;;11.70;99.90;;;;;;4987891;28;20038;-88
2023/04/24 16:56:35;;;;;;;7.28;3.13;;;11.80;99.90;;;;;;4999963;28;20092;-88
2023/04/24 16:59:10;;;;;;;15.70;3.35;;;11.90;99.90;;;;;;4999484;28;20034;-88
2023/04/24 17:01:43;;;;;;;15.63;3.50;;;11.90;99.90;;;;;;4999321;28;20405;-89
2023/04/24 17:04:14;;;;;;;10.50;3.30;;;11.90;99.90;;;;;;4999202;28;20037;-89
2023/04/24 17:06:58;;;;;;;;;;;12.00;99.90;;;;;;4984994;28;20041;-91
2023/04/24 17:09:38;;;;;;;;;;;;;;;;;;;;;
2023/04/24 17:12:17;;;;;;;15.30;4.13;;;12.10;99.90;;;;;;5002585;28;20124;-89
2023/04/24 17:14:58;;;;;;;;;;;;;;;;;;;;;
2023/04/24 17:17:42;;;;;;;;;;;;;;;;;;;;;
2023/04/24 17:20:33;;;;;;;10.32;3.25;;;12.10;99.90;;;;;;5033722;28;20036;-89
2023/04/24 17:23:17;;;;;;;10.98;4.15;;;12.10;99.90;;;;;;4998673;28;20029;-89
2023/04/24 17:26:08;;;;;;;10.43;4.15;;;12.10;99.90;;;;;;4998103;28;20034;-95
2023/04/24 17:29:05;;;;;;;16.02;3.35;;;12.00;99.90;;;;;;4998695;28;20124;-90
2023/04/24 17:31:53;;;;;;;13.65;3.40;;;11.90;99.90;;;;;;4999295;28;20041;-93
2023/04/24 17:34:21;;;;;;;13.30;3.42;;;11.80;99.90;;;;;;4990404;28;20038;-81
2023/04/24 17:36:56;;;;;;;14.50;3.35;;;11.70;99.90;;;;;;4982657;28;20029;-87
2023/04/24 17:40:08;;;;;;;;;;;;;;;;;;;;;
2023/04/24 17:43:11;;;;;;;;;;;;;;;;;;;;;
2023/04/24 17:45:31;;;;;;;16.40;3.33;;;11.50;99.90;;;;;;5031243;28;20037;-90
2023/04/24 17:47:59;;;;;;;16.05;4.03;;;11.40;99.90;;;;;;5004629;28;20033;-91
2023/04/24 17:50:48;;;;;;;12.10;3.65;;;11.30;99.90;;;;;;5025353;28;20030;-89
2023/04/24 17:53:21;;;;;;;17.45;4.20;;;11.20;99.90;;;;;;5010223;28;20040;-90
2023/04/24 17:56:03;;;;;;;;;;;;;;;;;;;;;
2023/04/24 18:01:47;;;;;;;11.95;3.90;;;11.00;99.90;;;;;;5034731;28;20061;-92
2023/04/24 18:04:42;;;;;;;17.63;4.50;;;11.00;99.90;;;;;;5018242;28;20051;-90
2023/04/24 18:13:56;;;;;;;8.88;3.30;;;10.70;99.90;;;;;;5023767;28;20037;-90
2023/04/24 18:16:39;;;;;;;10.95;3.63;;;10.70;99.90;;;;;;5039280;28;20045;-89
2023/04/24 18:19:23;;;;;;;;;;;;;;;;;;;;;
2023/04/24 18:22:25;;;;;;;;;;;;;;;;;;;;;
2023/04/24 18:25:27;;;;;;;;;;;;;;;;;;;;;
2023/04/24 18:28:06;;;;;;;16.65;3.85;;;10.50;99.90;;;;;;5026927;28;20440;-90
2023/04/24 18:30:37;;;;;;;12.48;3.70;;;10.50;99.90;;;;;;5017336;28;20032;-92
2023/04/24 18:33:06;;;;;;;15.30;3.70;;;10.50;99.90;;;;;;4988810;28;20129;-89
2023/04/24 18:36:20;;;;;;;;;;;;;;;;;;;;;
2023/04/24 18:39:38;;;;;;;12.80;4.13;;;10.40;99.90;;;;;;5019233;28;20096;-91
2023/04/24 18:42:12;;;;;;;12.38;3.92;;;10.40;99.90;;;;;;5014855;28;20080;-91
2023/04/24 18:45:01;;;;;;;;;;;;;;;;;;;;;
2023/04/24 18:47:54;;;;;;;15.02;4.50;;;10.30;99.90;;;;;;5034955;28;20128;-91
2023/04/24 18:50:36;;;;;;;14.25;4.43;;;10.30;99.90;;;;;;4997856;28;20033;-91
2023/04/24 18:53:22;;;;;;;15.45;4.05;;;10.30;99.90;;;;;;5032626;28;20120;-92
2023/04/24 19:00:00;;;;;;;;;;;;;;;;;;;;;
2023/04/24 19:02:31;;;;;;;20.65;4.32;;;10.20;99.90;;;;;;5033922;28;20041;-90
2023/04/24 19:05:09;;;;;;;;;;;10.10;99.90;;;;;;5016208;28;20033;-92
2023/04/24 19:08:07;;;;;;;21.88;4.97;;;10.10;99.90;;;;;;5000535;28;19909;-90
2023/04/24 19:11:00;;;;;;;;;;;;;;;;;;;;;
2023/04/24 19:13:49;;;;;;;14.90;4.25;;;10.10;99.90;;;;;;5015614;28;20036;-91
2023/04/24 19:17:07;;;;;;;17.73;5.22;;;10.00;99.90;;;;;;5011733;28;20042;-91
2023/04/24 19:20:14;;;;;;;20.67;5.07;;;10.00;99.90;;;;;;5038259;28;20040;-92
2023/04/24 19:23:13;;;;;;;;;;;;;;;;;;;;;
2023/04/24 19:26:25;;;;;;;;;;;;;;;;;;;;;
2023/04/24 19:29:42;;;;;;;;;;;;;;;;;;;;;
2023/04/24 19:32:32;;;;;;;17.08;4.78;;;10.00;99.90;;;;;;5015283;28;20052;-89
2023/04/24 19:35:17;;;;;;;;;;;;;;;;;;;;;
2023/04/24 19:38:15;;;;;;;15.10;4.40;;;9.90;99.90;;;;;;5021842;28;20044;-90
2023/04/24 19:41:23;;;;;;;;;;;;;;;;;;;;;
2023/04/24 19:44:23;;;;;;;20.13;5.20;;;9.90;99.90;;;;;;5018732;28;20099;-90
2023/04/24 19:47:29;;;;;;;22.83;5.75;;;9.90;99.90;;;;;;5002414;28;20040;-88
2023/04/24 19:50:14;;;;;;;;;;;;;;;;;;;;;
2023/04/24 19:53:05;;;;;;;;;;;;;;;;;;;;;
2023/04/24 19:55:46;;;;;;;;;;;;;;;;;;;;;
2023/04/24 19:58:41;;;;;;;23.60;5.10;;;9.80;99.90;;;;;;5016975;28;20057;-90
2023/04/24 20:04:57;;;;;;;21.17;4.45;;;9.70;99.90;;;;;;4956782;29;20087;-89
2023/04/24 20:08:11;;;;;;;18.33;3.78;;;9.70;99.90;;;;;;4942124;29;20028;-90
2023/04/24 20:10:58;;;;;;;;;;;;;;;;;;;;;
2023/04/24 20:14:08;;;;;;;16.60;4.10;;;9.60;99.90;;;;;;5014670;28;20560;-90
2023/04/24 20:17:07;;;;;;;;;;;;;;;;;;;;;
2023/04/24 20:20:00;;;;;;;;;;;;;;;;;;;;;
2023/04/24 20:23:04;;;;;;;;;;;;;;;;;;;;;
2023/04/24 20:26:03;;;;;;;21.55;5.15;;;9.50;99.90;;;;;;5017874;28;20109;-89
2023/04/24 20:28:52;;;;;;;16.80;3.60;;;9.50;99.90;;;;;;5000198;28;20026;-89
2023/04/24 20:32:07;;;;;;;;;;;;;;;;;;;;;
2023/04/24 20:37:32;;;;;;;15.73;3.60;;;9.40;99.90;;;;;;5000414;28;20042;-89
2023/04/24 20:40:22;;;;;;;;;;;;;;;;;;;;;
2023/04/24 20:43:00;;;;;;;;;;;;;;;;;;;;;